Time;durP1;ratioP1;P1;durP2;ratioP2;P2;SDS_P1;SDS_P2;PMS_P1;PMS_P2;Temp;Humidity;BMP_temperature;BMP_pressure;BME280_temperature;BME280_humidity;BME280_pressure;Samples;Min_cycle;Max_cycle;Signal;HPM_P1;HPM_P2
2023/06/26 00:02:28;;;;;;;;;;;21.80;99.90;;;;;;4834227;29;19925;-95
2023/06/26 00:05:21;;;;;;;;;;;21.70;99.90;;;;;;4836706;29;20180;-96
2023/06/26 00:08:09;;;;;;;;;;;21.70;99.90;;;;;;4818311;29;20034;-95
2023/06/26 00:14:02;;;;;;;;;;;21.60;99.90;;;;;;4778064;29;20473;-95
2023/06/26 00:16:55;;;;;;;;;;;21.50;99.90;;;;;;4822627;29;20055;-96
2023/06/26 00:19:34;;;;;;;;;;;;;;;;;;;;;
2023/06/26 00:22:40;;;;;;;;;;;21.50;99.90;;;;;;4824349;29;19965;-96
2023/06/26 00:25:09;;;;;;;;;;;21.50;99.90;;;;;;4821949;29;19944;-96
2023/06/26 00:30:53;;;;;;;;;;;21.40;99.90;;;;;;4782632;29;19947;-96
2023/06/26 00:33:35;;;;;;;;;;;21.40;99.90;;;;;;4830413;29;19928;-96
2023/06/26 00:36:16;;;;;;;;;;;21.40;99.90;;;;;;4833710;29;19932;-96
2023/06/26 00:39:25;;;;;;;;;;;21.30;99.90;;;;;;4828841;29;19932;-95
2023/06/26 00:42:00;;;;;;;;;;;21.40;99.90;;;;;;4805945;29;19932;-95
2023/06/26 00:44:41;;;;;;;;;;;21.40;99.90;;;;;;4843703;29;19928;-96
2023/06/26 00:50:43;;;;;;;;;;;21.40;99.90;;;;;;4795497;29;19928;-95
2023/06/26 00:56:24;;;;;;;;;;;21.30;99.90;;;;;;4826456;29;19936;-96
2023/06/26 00:59:05;;;;;;;;;;;21.40;99.90;;;;;;4817135;29;19935;-95
2023/06/26 01:01:59;;;;;;;;;;;21.30;99.90;;;;;;4790428;29;19958;-95
2023/06/26 01:08:28;;;;;;;;;;;21.30;99.90;;;;;;4774515;29;19929;-96
2023/06/26 01:11:06;;;;;;;;;;;21.20;99.90;;;;;;4765605;29;20369;-95
2023/06/26 01:13:40;;;;;;;;;;;21.10;99.90;;;;;;4756594;29;19970;-95
2023/06/26 01:16:30;;;;;;;;;;;21.10;99.90;;;;;;4781981;29;19928;-96
2023/06/26 01:19:02;;;;;;;;;;;21.10;99.90;;;;;;4839862;29;19927;-95
2023/06/26 01:21:57;;;;;;;;;;;21.10;99.90;;;;;;4832993;29;20399;-95
2023/06/26 01:24:44;;;;;;;;;;;21.10;99.90;;;;;;4845410;29;19924;-96
2023/06/26 01:28:06;;;;;;;;;;;21.00;99.90;;;;;;4827456;29;20030;-95
2023/06/26 01:30:18;;;;;;;;;;;21.00;99.90;;;;;;4819500;29;20360;-96
2023/06/26 01:32:44;;;;;;;;;;;21.10;99.90;;;;;;4829680;29;19975;-95
2023/06/26 01:35:47;;;;;;;;;;;21.00;99.90;;;;;;4846129;29;19924;-96
2023/06/26 01:38:23;;;;;;;;;;;21.00;99.90;;;;;;4830502;29;20007;-96
2023/06/26 01:41:12;;;;;;;;;;;21.00;99.90;;;;;;4847492;29;20372;-96
2023/06/26 01:44:07;;;;;;;;;;;;;;;;;;;;;
2023/06/26 01:47:05;;;;;;;;;;;21.00;99.90;;;;;;4859338;29;19944;-96
2023/06/26 01:50:07;;;;;;;;;;;21.00;99.90;;;;;;4817264;29;19935;-96
2023/06/26 01:53:03;;;;;;;;;;;21.00;99.90;;;;;;4845123;29;19928;-95
2023/06/26 01:56:05;;;;;;;;;;;21.00;99.90;;;;;;4841492;29;19924;-96
2023/06/26 01:58:43;;;;;;;;;;;21.00;99.90;;;;;;4832755;29;20028;-95
2023/06/26 02:04:29;;;;;;;;;;;20.80;99.90;;;;;;4840724;29;20431;-96
2023/06/26 02:07:25;;;;;;;;;;;20.90;99.90;;;;;;4845823;29;19939;-95
2023/06/26 02:10:04;;;;;;;;;;;20.70;99.90;;;;;;4834060;29;19942;-96
2023/06/26 02:12:59;;;;;;;;;;;20.80;99.90;;;;;;4837130;29;19927;-96
2023/06/26 02:15:40;;;;;;;;;;;20.80;99.90;;;;;;4786823;29;19924;-96
2023/06/26 02:18:18;;;;;;;;;;;20.90;99.90;;;;;;4845442;29;19927;-95
2023/06/26 02:21:00;;;;;;;;;;;20.80;99.90;;;;;;4845347;29;19927;-95
2023/06/26 02:23:39;;;;;;;;;;;20.80;99.90;;;;;;4828786;29;19924;-96
2023/06/26 02:29:42;;;;;;;;;;;20.70;99.90;;;;;;4851489;29;19935;-96
2023/06/26 02:32:28;;;;;;;;;;;20.80;99.90;;;;;;4845408;29;20329;-96
2023/06/26 02:35:52;;;;;;;;;;;20.80;99.90;;;;;;4848028;29;20018;-95
2023/06/26 02:38:40;;;;;;;;;;;20.70;99.90;;;;;;4826261;29;19924;-96
2023/06/26 02:44:37;;;;;;;;;;;20.70;99.90;;;;;;4837556;29;19927;-96
2023/06/26 02:47:39;;;;;;;;;;;20.70;99.90;;;;;;4839155;29;20292;-96
2023/06/26 02:50:40;;;;;;;;;;;20.60;99.90;;;;;;4841387;29;19924;-96
2023/06/26 02:53:51;;;;;;;;;;;20.60;99.90;;;;;;4833821;29;19923;-96
2023/06/26 02:56:46;;;;;;;;;;;20.40;99.90;;;;;;4842000;29;19972;-95
2023/06/26 03:02:35;;;;;;;;;;;20.50;99.90;;;;;;4846612;29;19923;-95
2023/06/26 03:05:18;;;;;;;;;;;20.50;99.90;;;;;;4833585;29;19924;-95
2023/06/26 03:08:20;;;;;;;;;;;20.60;99.90;;;;;;4845815;29;20511;-96
2023/06/26 03:11:15;;;;;;;;;;;20.50;99.90;;;;;;4861885;29;20389;-96
2023/06/26 03:17:35;;;;;;;;;;;20.40;99.90;;;;;;4768800;29;19975;-96
2023/06/26 03:20:26;;;;;;;;;;;20.50;99.90;;;;;;4857012;29;19932;-95
2023/06/26 03:26:30;;;;;;;;;;;;;;;;;;;;;
2023/06/26 03:29:43;;;;;;;;;;;20.70;99.90;;;;;;4863346;29;19956;-95
2023/06/26 03:35:34;;;;;;;;;;;20.80;99.90;;;;;;4847805;29;19928;-96
2023/06/26 03:41:21;;;;;;;;;;;21.00;99.90;;;;;;4784405;29;19928;-96
2023/06/26 03:44:16;;;;;;;;;;;21.10;99.90;;;;;;4820160;29;19951;-96
2023/06/26 03:47:15;;;;;;;;;;;21.10;99.90;;;;;;4822467;29;19932;-96
2023/06/26 03:50:06;;;;;;;;;;;;;;;;;;;;;
2023/06/26 03:53:45;;;;;;;;;;;21.20;99.90;;;;;;4851011;29;20017;-96
2023/06/26 03:56:59;;;;;;;;;;;21.30;99.90;;;;;;4851263;29;20008;-96
2023/06/26 04:00:11;;;;;;;;;;;21.20;99.90;;;;;;4840065;29;19928;-95
2023/06/26 04:02:54;;;;;;;;;;;21.40;99.90;;;;;;4806621;29;19928;-96
2023/06/26 04:32:43;;;;;;;;;;;21.20;99.90;;;;;;4879354;23;19927;-93
2023/06/26 04:35:19;;;;;;;;;;;21.50;99.90;;;;;;4817410;29;20084;-94
2023/06/26 04:37:46;;;;;;;;;;;21.40;99.90;;;;;;4840286;29;19928;-93
2023/06/26 04:40:13;;;;;;;;;;;21.60;99.90;;;;;;4827626;29;19932;-93
2023/06/26 04:42:45;;;;;;;;;;;21.70;99.90;;;;;;4840328;29;20400;-95
2023/06/26 04:45:10;;;;;;;;;;;21.80;99.90;;;;;;4829197;29;19924;-95
2023/06/26 04:47:36;;;;;;;;;;;21.80;99.90;;;;;;4840876;29;19932;-95
2023/06/26 04:50:04;;;;;;;;;;;21.90;99.90;;;;;;4829212;29;19982;-95
2023/06/26 04:52:50;;;;;;;;;;;21.80;99.90;;;;;;4829361;29;19931;-94
2023/06/26 04:55:16;;;;;;;;;;;22.00;99.90;;;;;;4840512;29;19928;-94
2023/06/26 04:57:44;;;;;;;;;;;22.10;99.90;;;;;;4828890;29;20358;-94
2023/06/26 05:00:17;;;;;;;;;;;21.80;99.90;;;;;;4841057;29;19958;-94
2023/06/26 05:05:42;;;;;;;;;;;21.90;99.90;;;;;;4875919;24;19988;-94
2023/06/26 05:08:26;;;;;;;;;;;21.80;99.90;;;;;;4828633;29;19975;-94
2023/06/26 05:10:57;;;;;;;;;;;21.80;99.90;;;;;;4821915;29;20022;-94
2023/06/26 05:13:23;;;;;;;;;;;21.70;99.90;;;;;;4828973;29;19928;-93
2023/06/26 05:31:16;;;;;;;;;;;20.80;99.90;;;;;;4846262;29;19931;-96
2023/06/26 05:33:46;;;;;;;;;;;20.90;99.90;;;;;;4811479;29;19924;-96
2023/06/26 05:36:16;;;;;;;;;;;20.80;99.90;;;;;;4817527;29;20432;-96
2023/06/26 05:38:52;;;;;;;;;;;20.70;99.90;;;;;;4809843;29;19985;-94
2023/06/26 05:41:23;;;;;;;;;;;20.60;99.90;;;;;;4828032;24;19932;-93
2023/06/26 05:44:14;;;;;;;;;;;20.60;99.90;;;;;;4807577;29;19984;-94
2023/06/26 05:46:40;;;;;;;;;;;20.50;99.90;;;;;;4830672;29;19928;-93
2023/06/26 05:49:06;;;;;;;;;;;20.40;99.90;;;;;;4811777;29;20417;-94
2023/06/26 05:51:31;;;;;;;;;;;20.30;99.90;;;;;;4814984;29;19928;-94
2023/06/26 05:53:57;;;;;;;;;;;20.30;99.90;;;;;;4824700;29;19954;-94
2023/06/26 05:56:23;;;;;;;;;;;20.20;99.90;;;;;;4810137;29;20325;-94
2023/06/26 05:58:49;;;;;;;;;;;20.20;99.90;;;;;;4810329;29;19929;-95
2023/06/26 06:01:15;;;;;;;;;;;20.20;99.90;;;;;;4816898;29;19944;-93
2023/06/26 06:03:40;;;;;;;;;;;20.20;99.90;;;;;;4815423;29;19931;-93
2023/06/26 06:06:06;;;;;;;;;;;20.20;99.90;;;;;;4820296;29;20005;-95
2023/06/26 06:08:32;;;;;;;;;;;20.30;99.90;;;;;;4810012;29;19980;-95
2023/06/26 06:10:59;;;;;;;;;;;20.20;99.90;;;;;;4818575;29;19928;-95
2023/06/26 06:13:25;;;;;;;;;;;20.20;99.90;;;;;;4826355;29;19931;-96
2023/06/26 06:15:50;;;;;;;;;;;20.20;99.90;;;;;;4816262;29;19924;-96
2023/06/26 06:18:19;;;;;;;;;;;20.30;99.90;;;;;;4823637;29;20291;-89
2023/06/26 06:20:45;;;;;;;;;;;20.00;99.90;;;;;;4809575;29;20026;-88
2023/06/26 06:23:10;;;;;;;;;;;20.50;99.90;;;;;;4810168;29;20665;-92
2023/06/26 06:25:48;;;;;;;;;;;20.60;99.90;;;;;;4893574;24;20016;-91
2023/06/26 06:31:06;;;;;;;;;;;20.40;99.90;;;;;;4821373;29;19928;-93
2023/06/26 06:33:54;;;;;;;;;;;20.50;99.90;;;;;;4853114;29;19999;-91
2023/06/26 06:36:44;;;;;;;;;;;20.60;99.90;;;;;;4842496;29;20018;-93
2023/06/26 06:39:36;;;;;;;;;;;20.60;99.90;;;;;;4829578;29;19967;-92
2023/06/26 06:42:37;;;;;;;;;;;20.80;99.90;;;;;;4826644;29;19947;-93
2023/06/26 06:45:12;;;;;;;;;;;20.80;99.90;;;;;;4802591;23;19940;-90
2023/06/26 06:47:37;;;;;;;;;;;21.00;99.90;;;;;;4787471;29;19928;-92
2023/06/26 06:50:09;;;;;;;;;;;20.90;99.90;;;;;;4788872;29;20357;-91
2023/06/26 06:52:39;;;;;;;;;;;21.00;99.90;;;;;;4787958;29;19929;-91
2023/06/26 06:55:09;;;;;;;;;;;21.10;99.90;;;;;;4786333;29;19929;-91
2023/06/26 06:57:39;;;;;;;;;;;21.10;99.90;;;;;;4799800;29;20359;-90
2023/06/26 07:00:08;;;;;;;;;;;21.40;99.90;;;;;;4790008;29;19925;-92
2023/06/26 07:02:44;;;;;;;;;;;21.20;99.90;;;;;;4788241;29;19999;-91
2023/06/26 07:05:12;;;;;;;;;;;21.30;99.90;;;;;;4814105;24;20035;-93
2023/06/26 07:07:39;;;;;;;;;;;21.30;99.90;;;;;;4820793;29;20115;-91
2023/06/26 07:10:06;;;;;;;;;;;21.30;99.90;;;;;;4818266;29;19987;-92
2023/06/26 07:12:50;;;;;;;;;;;21.40;99.90;;;;;;4822634;29;19935;-90
2023/06/26 07:15:25;;;;;;;;;;;21.80;99.90;;;;;;4819351;24;19971;-92
2023/06/26 07:18:32;;;;;;;;;;;21.70;99.90;;;;;;4808007;29;19929;-90
2023/06/26 07:20:57;;;;;;;;;;;21.80;99.90;;;;;;4815157;29;20094;-89
2023/06/26 07:23:29;;;;;;;;;;;21.90;99.90;;;;;;4807909;29;19928;-91
2023/06/26 07:26:03;;;;;;;;;;;21.90;99.90;;;;;;4807315;29;20394;-91
2023/06/26 07:28:29;;;;;;;;;;;22.00;99.90;;;;;;4808082;29;19924;-93
2023/06/26 07:30:55;;;;;;;;;;;21.90;99.90;;;;;;4817100;29;19935;-93
2023/06/26 07:33:20;;;;;;;;;;;22.00;99.90;;;;;;4809122;29;19935;-90
2023/06/26 07:35:46;;;;;;;;;;;22.10;99.90;;;;;;4807797;29;20015;-93
2023/06/26 07:38:40;;;;;;;;;;;22.00;99.90;;;;;;4808602;29;19988;-94
2023/06/26 07:41:34;;;;;;;;;;;22.00;99.90;;;;;;4808475;29;20006;-93
2023/06/26 07:44:10;;;;;;;;;;;22.10;99.90;;;;;;4788303;29;19929;-92
2023/06/26 07:46:39;;;;;;;;;;;22.30;99.90;;;;;;4822695;29;19935;-92
2023/06/26 07:49:13;;;;;;;;;;;22.20;99.90;;;;;;4808461;29;20358;-93
2023/06/26 07:51:57;;;;;;;;;;;22.40;99.90;;;;;;4808556;29;19928;-95
2023/06/26 07:54:26;;;;;;;;;;;22.50;99.90;;;;;;4824171;29;19930;-93
2023/06/26 07:56:59;;;;;;;;;;;22.40;99.90;;;;;;4807135;29;19943;-94
2023/06/26 07:59:25;;;;;;;;;;;22.60;99.90;;;;;;4806923;29;20568;-93
2023/06/26 08:04:46;;;;;;;;;;;22.20;99.90;;;;;;4801616;29;19925;-93
2023/06/26 08:07:13;;;;;;;;;;;22.20;99.90;;;;;;4772410;29;19929;-93
2023/06/26 08:09:39;;;;;;;;;;;22.10;99.90;;;;;;4779289;29;19929;-92
2023/06/26 08:12:07;;;;;;;;;;;22.10;99.90;;;;;;4783479;29;19929;-93
2023/06/26 08:14:39;;;;;;;;;;;22.10;99.90;;;;;;4789309;29;19935;-91
2023/06/26 08:17:05;;;;;;;;;;;22.00;99.90;;;;;;4773835;29;19933;-91
2023/06/26 08:19:30;;;;;;;;;;;22.00;99.90;;;;;;4779653;29;19925;-91
2023/06/26 08:21:56;;;;;;;;;;;22.20;99.90;;;;;;4773953;29;19931;-90
2023/06/26 08:24:22;;;;;;;;;;;22.40;99.90;;;;;;4779515;29;20015;-91
2023/06/26 08:26:49;;;;;;;;;;;22.40;99.90;;;;;;4772452;29;19936;-90
2023/06/26 08:29:48;;;;;;;;;;;22.40;99.90;;;;;;4780819;29;20012;-93
2023/06/26 08:32:16;;;;;;;;;;;22.20;99.90;;;;;;4749725;30;19926;-91
2023/06/26 08:34:42;;;;;;;;;;;22.10;99.90;;;;;;4747217;30;19926;-92
2023/06/26 08:37:23;;;;;;;;;;;22.30;99.90;;;;;;4765525;30;19964;-92
2023/06/26 08:39:54;;;;;;;;;;;22.50;99.90;;;;;;4768015;29;19950;-90
2023/06/26 08:42:23;;;;;;;;;;;22.70;99.90;;;;;;4788964;29;19935;-89
2023/06/26 08:44:48;;;;;;;;;;;22.70;99.90;;;;;;4772031;29;19925;-90
2023/06/26 08:47:14;;;;;;;;;;;22.80;99.90;;;;;;4779440;29;20350;-90
2023/06/26 08:49:47;;;;;;;;;;;22.80;99.90;;;;;;4788420;29;19935;-91
2023/06/26 08:52:19;;;;;;;;;;;22.80;99.90;;;;;;4790941;29;20391;-90
2023/06/26 08:54:55;;;;;;;;;;;22.90;99.90;;;;;;4788951;29;20378;-91
2023/06/26 08:57:22;;;;;;;;;;;23.10;99.90;;;;;;4791295;29;19981;-90
2023/06/26 08:59:47;;;;;;;;;;;23.10;99.90;;;;;;4789017;29;19933;-90
2023/06/26 09:02:13;;;;;;;;;;;23.20;99.90;;;;;;4787898;29;19929;-90
2023/06/26 09:04:39;;;;;;;;;;;22.90;99.90;;;;;;4788769;29;19952;-91
2023/06/26 09:07:05;;;;;;;;;;;22.90;99.90;;;;;;4791714;29;20331;-90
2023/06/26 09:09:31;;;;;;;;;;;23.00;99.90;;;;;;4792088;29;20297;-90
2023/06/26 09:11:56;;;;;;;;;;;23.10;99.90;;;;;;4788713;29;20203;-90
2023/06/26 09:14:22;;;;;;;;;;;23.20;99.90;;;;;;4788047;29;19928;-90
2023/06/26 09:16:48;;;;;;;;;;;23.30;99.90;;;;;;4788621;29;19993;-90
2023/06/26 09:19:14;;;;;;;;;;;23.30;99.90;;;;;;4788831;29;20512;-91
2023/06/26 09:21:41;;;;;;;;;;;23.50;99.90;;;;;;4790111;29;19925;-89
2023/06/26 09:24:07;;;;;;;;;;;23.50;99.90;;;;;;4789214;29;19928;-91
2023/06/26 09:26:33;;;;;;;;;;;23.40;99.90;;;;;;4787480;29;20008;-90
2023/06/26 09:29:02;;;;;;;;;;;23.30;99.90;;;;;;4791287;29;19925;-92
2023/06/26 09:31:28;;;;;;;;;;;23.20;99.90;;;;;;4787483;29;20339;-90
2023/06/26 09:33:57;;;;;;;;;;;23.30;99.90;;;;;;4788870;29;19929;-90
2023/06/26 09:36:24;;;;;;;;;;;23.40;99.90;;;;;;4789984;29;19925;-91
2023/06/26 09:38:50;;;;;;;;;;;23.30;99.90;;;;;;4791412;29;19925;-93
2023/06/26 09:41:17;;;;;;;;;;;23.10;99.90;;;;;;4790805;29;19929;-90
2023/06/26 09:43:48;;;;;;;;;;;22.80;99.90;;;;;;4780233;29;19948;-90
2023/06/26 09:46:24;;;;;;;;;;;22.50;99.90;;;;;;4775787;29;20029;-91
2023/06/26 09:48:50;;;;;;;;;;;22.50;99.90;;;;;;4788375;29;19929;-90
2023/06/26 09:51:16;;;;;;;;;;;22.70;99.90;;;;;;4787401;29;19933;-91
2023/06/26 09:53:42;;;;;;;;;;;23.10;99.90;;;;;;4790977;29;19929;-90
2023/06/26 09:56:15;;;;;;;;;;;23.40;99.90;;;;;;4802123;29;19929;-90
2023/06/26 09:58:43;;;;;;;;;;;23.40;99.90;;;;;;4788527;29;19929;-92
2023/06/26 10:01:09;;;;;;;;;;;23.30;99.90;;;;;;4790957;29;19925;-91
2023/06/26 10:03:38;;;;;;;;;;;23.10;99.90;;;;;;4787410;29;19974;-91
2023/06/26 10:06:04;;;;;;;;;;;23.20;99.90;;;;;;4791043;29;19964;-91
2023/06/26 10:08:33;;;;;;;;;;;23.20;99.90;;;;;;4790219;29;19971;-90
2023/06/26 10:10:58;;;;;;;;;;;23.30;99.90;;;;;;4790490;29;19924;-91
2023/06/26 10:13:27;;;;;;;;;;;23.50;99.90;;;;;;4789993;29;20063;-91
2023/06/26 10:15:53;;;;;;;;;;;23.60;99.90;;;;;;4791006;29;19929;-90
2023/06/26 10:18:21;;;;;;;;;;;23.60;99.90;;;;;;4788934;29;20262;-90
2023/06/26 10:20:55;;;;;;;;;;;23.80;99.90;;;;;;4790469;29;19981;-90
2023/06/26 10:23:23;;;;;;;;;;;23.90;99.90;;;;;;4785531;29;19929;-89
2023/06/26 10:25:50;;;;;;;;;;;24.20;99.90;;;;;;4789758;29;19935;-89
2023/06/26 10:28:16;;;;;;;;;;;24.10;99.90;;;;;;4786955;29;20007;-90
2023/06/26 10:30:43;;;;;;;;;;;23.90;99.90;;;;;;4787803;29;20059;-90
2023/06/26 10:33:09;;;;;;;;;;;23.90;99.90;;;;;;4786295;29;20386;-90
2023/06/26 10:35:41;;;;;;;;;;;23.80;99.90;;;;;;4787216;29;19925;-89
2023/06/26 10:38:06;;;;;;;;;;;23.70;99.90;;;;;;4786819;29;19925;-89
2023/06/26 10:40:41;;;;;;;;;;;23.90;99.90;;;;;;4786265;29;20283;-89
2023/06/26 10:43:08;;;;;;;;;;;23.90;99.90;;;;;;4787096;29;19937;-90
2023/06/26 10:45:34;;;;;;;;;;;23.60;99.90;;;;;;4780124;29;19948;-92
2023/06/26 10:48:00;;;;;;;;;;;23.30;99.90;;;;;;4784043;29;20024;-90
2023/06/26 10:50:28;;;;;;;;;;;23.30;99.90;;;;;;4787130;29;19940;-90
2023/06/26 10:53:08;;;;;;;;;;;23.50;99.90;;;;;;4772696;29;19947;-90
2023/06/26 10:55:34;;;;;;;;;;;23.50;99.90;;;;;;4783597;29;19929;-91
2023/06/26 10:58:01;;;;;;;;;;;23.40;99.90;;;;;;4779679;29;19932;-89
2023/06/26 11:00:27;;;;;;;;;;;23.50;99.90;;;;;;4775992;29;19933;-91
2023/06/26 11:02:55;;;;;;;;;;;23.80;99.90;;;;;;4777064;29;19925;-91
2023/06/26 11:05:26;;;;;;;;;;;23.90;99.90;;;;;;4775834;29;20397;-90
2023/06/26 11:08:07;;;;;;;;;;;24.00;99.90;;;;;;4787404;29;19925;-90
2023/06/26 11:10:49;;;;;;;;;;;24.10;99.90;;;;;;4773248;29;20354;-90
2023/06/26 11:13:16;;;;;;;;;;;24.30;99.90;;;;;;4801693;29;20036;-90
2023/06/26 11:15:42;;;;;;;;;;;24.40;99.90;;;;;;4778115;29;19935;-90
2023/06/26 11:18:08;;;;;;;;;;;24.40;99.90;;;;;;4788530;29;19932;-90
2023/06/26 11:20:33;;;;;;;;;;;24.40;99.90;;;;;;4771827;29;19925;-89
2023/06/26 11:22:59;;;;;;;;;;;24.40;99.90;;;;;;4784054;29;19935;-90
2023/06/26 11:25:25;;;;;;;;;;;24.40;99.90;;;;;;4793456;29;19987;-90
2023/06/26 11:27:53;;;;;;;;;;;24.40;99.90;;;;;;4777112;29;20382;-91
2023/06/26 11:30:23;;;;;;;;;;;24.20;99.90;;;;;;4786605;29;20023;-90
2023/06/26 11:32:49;;;;;;;;;;;24.00;99.90;;;;;;4798652;29;19924;-92
2023/06/26 11:35:29;;;;;;;;;;;23.70;99.90;;;;;;4771538;29;19932;-90
2023/06/26 11:38:00;;;;;;;;;;;23.50;99.90;;;;;;4772040;29;19932;-89
2023/06/26 11:40:26;;;;;;;;;;;23.50;99.90;;;;;;4771798;29;19936;-89
2023/06/26 11:42:53;;;;;;;;;;;23.80;99.90;;;;;;4771228;29;20019;-89
2023/06/26 11:45:19;;;;;;;;;;;23.90;99.90;;;;;;4781198;29;19991;-89
2023/06/26 11:47:45;;;;;;;;;;;23.80;99.90;;;;;;4800267;29;20446;-88
2023/06/26 11:50:16;;;;;;;;;;;23.90;99.90;;;;;;4770903;29;19929;-89
2023/06/26 11:52:41;;;;;;;;;;;23.80;99.90;;;;;;4787826;29;19977;-90
2023/06/26 11:55:07;;;;;;;;;;;23.80;99.90;;;;;;4778771;29;20262;-89
2023/06/26 11:57:33;;;;;;;;;;;23.90;99.90;;;;;;4786429;29;20375;-90
2023/06/26 12:00:09;;;;;;;;;;;24.00;99.90;;;;;;4771421;29;19932;-88
2023/06/26 12:02:35;;;;;;;;;;;23.90;99.90;;;;;;4786401;29;19985;-89
2023/06/26 12:05:01;;;;;;;;;;;23.80;99.90;;;;;;4785552;29;19928;-90
2023/06/26 12:07:26;;;;;;;;;;;23.90;99.90;;;;;;4788715;29;20008;-89
2023/06/26 12:09:53;;;;;;;;;;;24.10;99.90;;;;;;4792193;29;19925;-89
2023/06/26 12:12:19;;;;;;;;;;;24.40;99.90;;;;;;4786174;29;19925;-90
2023/06/26 12:14:44;;;;;;;;;;;24.40;99.90;;;;;;4786414;29;19951;-88
2023/06/26 12:17:11;;;;;;;;;;;24.50;99.90;;;;;;4782169;29;20023;-90
2023/06/26 12:19:43;;;;;;;;;;;24.50;99.90;;;;;;4771740;29;19940;-90
2023/06/26 12:22:10;;;;;;;;;;;24.50;99.90;;;;;;4785675;29;19941;-89
2023/06/26 12:24:38;;;;;;;;;;;24.40;99.90;;;;;;4785978;29;19940;-89
2023/06/26 12:27:08;;;;;;;;;;;24.40;99.90;;;;;;4789525;29;19925;-89
2023/06/26 12:29:37;;;;;;;;;;;24.20;99.90;;;;;;4789823;29;19990;-90
2023/06/26 12:32:03;;;;;;;;;;;24.20;99.90;;;;;;4774031;29;20019;-90
2023/06/26 12:34:31;;;;;;;;;;;24.40;99.90;;;;;;4789292;29;20073;-90
2023/06/26 12:37:00;;;;;;;;;;;24.40;99.90;;;;;;4797958;29;19951;-90
2023/06/26 12:39:27;;;;;;;;;;;24.00;99.90;;;;;;4792397;29;19925;-90
2023/06/26 12:41:54;;;;;;;;;;;23.80;99.90;;;;;;4798236;29;19925;-89
2023/06/26 12:44:21;;;;;;;;;;;23.70;99.90;;;;;;4803951;29;20011;-90
2023/06/26 12:46:48;;;;;;;;;;;23.70;99.90;;;;;;4791262;29;20019;-91
2023/06/26 12:49:14;;;;;;;;;;;23.60;97.60;;;;;;4792337;29;19936;-91
2023/06/26 12:51:40;;;;;;;;;;;23.70;98.40;;;;;;4790134;29;19929;-90
2023/06/26 12:54:06;;;;;;;;;;;23.80;98.50;;;;;;4788949;29;20316;-89
2023/06/26 12:56:31;;;;;;;;;;;23.80;98.70;;;;;;4797735;29;20359;-89
2023/06/26 12:59:01;;;;;;;;;;;23.80;98.80;;;;;;4791608;29;19943;-90
2023/06/26 13:01:29;;;;;;;;;;;24.20;99.00;;;;;;4789570;29;20020;-91
2023/06/26 13:03:54;;;;;;;;;;;23.60;99.20;;;;;;4793555;29;20016;-90
2023/06/26 13:06:20;;;;;;;;;;;23.50;98.90;;;;;;4796256;29;19937;-90
2023/06/26 13:08:46;;;;;;;;;;;23.30;98.30;;;;;;4789922;29;20297;-92
2023/06/26 13:11:12;;;;;;;;;;;23.30;99.40;;;;;;4789277;29;19925;-90
2023/06/26 13:13:37;;;;;;;;;;;23.20;99.60;;;;;;4804816;29;19935;-90
2023/06/26 13:16:03;;;;;;;;;;;23.10;99.50;;;;;;4797353;29;20351;-90
2023/06/26 13:18:29;;;;;;;;;;;23.10;99.90;;;;;;4801310;29;19936;-91
2023/06/26 13:20:54;;;;;;;;;;;23.20;99.90;;;;;;4788702;29;20031;-89
2023/06/26 13:23:20;;;;;;;;;;;23.10;99.80;;;;;;4793164;29;19928;-90
2023/06/26 13:25:45;;;;;;;;;;;23.10;99.90;;;;;;4797069;29;19925;-90
2023/06/26 13:28:11;;;;;;;;;;;23.10;99.80;;;;;;4804750;29;19928;-91
2023/06/26 13:30:37;;;;;;;;;;;23.10;99.90;;;;;;4796499;29;19935;-90
2023/06/26 13:33:02;;;;;;;;;;;23.10;99.90;;;;;;4789539;29;19935;-90
2023/06/26 13:35:30;;;;;;;;;;;23.20;99.90;;;;;;4788553;29;19929;-91
2023/06/26 13:37:56;;;;;;;;;;;23.20;99.90;;;;;;4788385;29;20448;-90
2023/06/26 13:40:22;;;;;;;;;;;23.00;99.90;;;;;;4788782;29;19979;-90
2023/06/26 13:42:47;;;;;;;;;;;23.00;99.90;;;;;;4789132;29;20379;-91
2023/06/26 13:45:13;;;;;;;;;;;23.00;99.90;;;;;;4788434;29;19976;-91
2023/06/26 13:47:41;;;;;;;;;;;23.00;99.90;;;;;;4800141;29;20590;-90
2023/06/26 13:50:08;;;;;;;;;;;22.80;99.90;;;;;;4791315;29;19932;-91
2023/06/26 13:52:34;;;;;;;;;;;22.60;99.90;;;;;;4806283;29;20370;-91
2023/06/26 13:54:59;;;;;;;;;;;22.50;99.90;;;;;;4803345;29;19973;-90
2023/06/26 13:57:27;;;;;;;;;;;22.50;99.90;;;;;;4786741;29;20293;-92
2023/06/26 14:00:05;;;;;;;;;;;22.40;99.90;;;;;;4792677;29;20322;-92
2023/06/26 14:02:31;;;;;;;;;;;22.40;99.90;;;;;;4788368;29;19932;-90
2023/06/26 14:04:56;;;;;;;;;;;22.40;99.90;;;;;;4788481;29;20435;-90
2023/06/26 14:07:24;;;;;;;;;;;22.60;99.90;;;;;;4800651;29;19950;-90
2023/06/26 14:09:50;;;;;;;;;;;22.40;99.90;;;;;;4788330;29;20298;-90
2023/06/26 14:12:16;;;;;;;;;;;22.40;99.90;;;;;;4793323;29;19928;-90
2023/06/26 14:14:52;;;;;;;;;;;;;;;;;;;;;
2023/06/26 14:17:19;;;;;;;;;;;22.30;99.90;;;;;;4799494;29;19932;-89
2023/06/26 14:19:53;;;;;;;;;;;22.40;99.90;;;;;;4774276;29;20019;-91
2023/06/26 14:22:19;;;;;;;;;;;22.30;99.90;;;;;;4788396;29;20019;-91
2023/06/26 14:24:45;;;;;;;;;;;22.30;99.90;;;;;;4787318;29;20007;-89
2023/06/26 14:27:10;;;;;;;;;;;22.40;99.90;;;;;;4795381;29;19925;-90
2023/06/26 14:29:48;;;;;;;;;;;22.50;99.90;;;;;;4792491;29;20349;-91
2023/06/26 14:32:14;;;;;;;;;;;22.40;99.90;;;;;;4787836;29;20101;-91
2023/06/26 14:34:46;;;;;;;;;;;22.40;99.90;;;;;;4789647;29;20454;-90
2023/06/26 15:22:58;;;;;;;;;;;22.00;99.90;;;;;;4862038;24;19980;-96
2023/06/26 15:25:31;;;;;;;;;;;21.90;99.90;;;;;;4851514;29;20374;-93
2023/06/26 15:28:00;;;;;;;;;;;21.90;99.90;;;;;;4825398;29;19934;-96
2023/06/26 15:30:28;;;;;;;;;;;21.90;99.90;;;;;;4823603;29;20373;-94
2023/06/26 15:32:54;;;;;;;;;;;21.80;99.90;;;;;;4830865;29;19928;-95
2023/06/26 15:35:20;;;;;;;;;;;21.90;99.90;;;;;;4828837;29;19935;-94
2023/06/26 15:37:46;;;;;;;;;;;22.10;99.90;;;;;;4828512;29;19980;-94
2023/06/26 15:46:41;;;;;;;;;;;22.00;99.90;;;;;;4773772;30;19944;-88
2023/06/26 15:49:06;;;;;;;;;;;22.20;99.90;;;;;;4768347;30;20033;-89
2023/06/26 15:51:45;;;;;;;;;;;22.10;99.90;;;;;;4806850;29;20412;-88
2023/06/26 15:54:11;;;;;;;;;;;21.80;99.90;;;;;;4841907;29;19963;-89
2023/06/26 15:56:36;;;;;;;;;;;22.00;99.90;;;;;;4823520;29;20020;-92
2023/06/26 16:02:20;;;;;;;;;;;22.70;99.90;;;;;;4888635;24;19934;-91
2023/06/26 16:05:01;;;;;;;;;;;23.00;99.90;;;;;;4835359;29;19928;-91
2023/06/26 16:07:30;;;;;;;;;;;23.10;99.10;;;;;;4824663;29;20650;-90
2023/06/26 16:09:56;;;;;;;;;;;23.10;98.60;;;;;;4831516;29;19928;-91
2023/06/26 16:12:24;;;;;;;;;;;23.20;98.50;;;;;;4826906;29;19923;-93
2023/06/26 16:14:50;;;;;;;;;;;23.20;98.70;;;;;;4828504;29;20456;-89
2023/06/26 16:17:22;;;;;;;;;;;23.20;98.70;;;;;;4823004;29;20015;-94
2023/06/26 16:19:48;;;;;;;;;;;23.40;98.90;;;;;;4822888;29;19967;-90
2023/06/26 16:22:39;;;;;;;;;;;23.50;97.40;;;;;;4828034;29;19978;-90
2023/06/26 16:25:11;;;;;;;;;;;23.60;97.50;;;;;;4822590;29;19928;-91
2023/06/26 16:27:37;;;;;;;;;;;23.90;97.60;;;;;;4823454;29;20014;-91
2023/06/26 16:30:23;;;;;;;;;;;24.00;97.90;;;;;;4973076;24;19935;-91
2023/06/26 16:33:04;;;;;;;;;;;24.10;95.90;;;;;;4839791;29;19928;-92
2023/06/26 16:35:59;;;;;;;;;;;24.00;96.30;;;;;;4828028;29;19928;-91
2023/06/26 16:38:47;;;;;;;;;;;23.90;94.30;;;;;;4780141;29;20280;-91
2023/06/26 16:41:12;;;;;;;;;;;23.80;95.30;;;;;;4820116;29;19924;-89
2023/06/26 16:43:56;;;;;;;;;;;24.10;95.30;;;;;;4822450;29;19950;-93
2023/06/26 16:46:25;;;;;;;;;;;24.20;94.70;;;;;;4810165;29;19932;-92
2023/06/26 16:56:08;;;;;;;;;;;25.50;92.70;;;;;;4819618;29;19939;-92
2023/06/26 16:58:34;;;;;;;;;;;25.70;91.60;;;;;;4787169;24;19959;-92
2023/06/26 17:01:00;;;;;;;;;;;25.70;92.00;;;;;;4802353;29;19968;-92
2023/06/26 17:03:54;;;;;;;;;;;;;;;;;;;;;
2023/06/26 17:13:35;;;;;;;;;;;26.10;90.90;;;;;;4837332;29;20080;-92
2023/06/26 17:16:03;;;;;;;;;;;26.60;90.60;;;;;;4825829;29;20072;-90
2023/06/26 17:22:45;;;;;;;;;;;;;;;;;;;;;
2023/06/26 17:24:32;;;;;;;;;;;27.40;86.70;;;;;;4818406;29;20014;-87
2023/06/26 17:27:10;;;;;;;;;;;27.20;82.70;;;;;;4827401;29;20019;-87
2023/06/26 17:29:36;;;;;;;;;;;27.00;82.80;;;;;;4826037;29;20452;-88
2023/06/26 17:32:07;;;;;;;;;;;26.60;82.90;;;;;;4833626;29;20030;-89
2023/06/26 17:34:42;;;;;;;;;;;26.60;82.80;;;;;;4841550;29;19928;-87
2023/06/26 17:37:10;;;;;;;;;;;26.80;82.50;;;;;;4827296;29;19988;-88
2023/06/26 17:39:35;;;;;;;;;;;26.50;82.10;;;;;;4829781;29;19953;-87
2023/06/26 17:42:04;;;;;;;;;;;26.60;82.50;;;;;;4845690;29;19950;-88
2023/06/26 17:44:34;;;;;;;;;;;26.70;82.30;;;;;;4824649;29;20376;-87
2023/06/26 17:47:00;;;;;;;;;;;26.70;80.90;;;;;;4823739;29;19979;-86
2023/06/26 17:49:26;;;;;;;;;;;26.60;82.70;;;;;;4851152;29;20384;-87